Terminal Aerodrome Forecast
Issued by NWS

Home | Current Version | Previous Version | Text Only | Print | Product List | Glossary On
Versions: 1 2 3 4 5 6 7 8 9 10 11 12 13 14 15 16 17 18 19 20 21 22 23 24 25 26 27 28 29 30 31
000
FTUS45 KBOU 201120
TAFBJC
TAF
KBJC 201120Z 2012/2112 VRB03KT P6SM FEW200
     FM201500 33006KT P6SM FEW220
     FM201800 10008KT P6SM FEW120 SCT220
     FM210300 VRB05KT P6SM SCT220
     FM210600 24008KT P6SM FEW140 SCT200=

USA.gov is the U.S. government's official web portal to all federal, state and local government web resources and services.